createdAt,value
2022-12-12T00:01:24.237Z,-1.40
2022-12-12T00:03:52.618Z,-1.30
2022-12-12T00:06:21.337Z,-1.30
2022-12-12T00:08:49.748Z,-1.20
2022-12-12T00:11:19.833Z,-1.20
2022-12-12T00:13:48.076Z,-1.20
2022-12-12T00:16:16.818Z,-1.30
2022-12-12T00:18:44.941Z,-1.30
2022-12-12T00:21:16.553Z,-1.40
2022-12-12T00:23:44.730Z,-1.40
2022-12-12T00:26:20.069Z,-1.40
2022-12-12T00:28:48.452Z,-1.40
2022-12-12T00:31:18.838Z,-1.40
2022-12-12T00:33:48.954Z,-1.30
2022-12-12T00:36:17.567Z,-1.30
2022-12-12T00:38:45.881Z,-1.30
2022-12-12T00:41:14.208Z,-1.30
2022-12-12T00:43:44.276Z,-1.30
2022-12-12T00:46:16.048Z,-1.30
2022-12-12T00:48:44.524Z,-1.30
2022-12-12T00:51:17.429Z,-1.40
2022-12-12T00:53:45.918Z,-1.40
2022-12-12T00:56:15.567Z,-1.30
2022-12-12T00:58:45.182Z,-1.30
2022-12-12T01:01:16.321Z,-1.40
2022-12-12T01:03:45.221Z,-1.40
2022-12-12T01:06:13.632Z,-1.40
2022-12-12T01:08:42.088Z,-1.40
2022-12-12T01:11:11.513Z,-1.40
2022-12-12T01:13:40.097Z,-1.50
2022-12-12T01:16:10.957Z,-1.40
2022-12-12T01:18:40.145Z,-1.50
2022-12-12T01:21:10.229Z,-1.40
2022-12-12T01:23:38.562Z,-1.40
2022-12-12T01:26:09.918Z,-1.40
2022-12-12T01:28:40.332Z,-1.40
2022-12-12T01:31:10.186Z,-1.40
2022-12-12T01:33:38.619Z,-1.40
2022-12-12T01:36:07.329Z,-1.40
2022-12-12T01:38:35.585Z,-1.40
2022-12-12T01:41:05.692Z,-1.40
2022-12-12T01:43:33.926Z,-1.40
2022-12-12T01:46:34.788Z,-1.50
2022-12-12T01:49:13.062Z,-1.50
2022-12-12T01:51:44.123Z,-1.50
2022-12-12T01:54:15.911Z,-1.40
2022-12-12T01:56:45.575Z,-1.40
2022-12-12T01:59:18.950Z,-1.30
2022-12-12T02:01:47.453Z,-1.30
2022-12-12T02:04:18.108Z,-1.20
2022-12-12T02:06:48.549Z,-1.10
2022-12-12T02:09:18.318Z,-1.10
2022-12-12T02:11:48.306Z,-1.10
2022-12-12T02:14:23.407Z,-1.00
2022-12-12T02:17:10.031Z,-1.00
2022-12-12T02:20:14.425Z,-1.10
2022-12-12T02:23:15.428Z,-1.10
2022-12-12T02:26:08.636Z,-1.10
2022-12-12T02:28:45.896Z,-1.00
2022-12-12T02:31:19.524Z,-1.10
2022-12-12T02:33:55.087Z,-1.10
2022-12-12T02:36:30.885Z,-1.10
2022-12-12T02:39:06.837Z,-1.00
2022-12-12T02:41:41.935Z,-1.10
2022-12-12T02:44:22.649Z,-1.00
2022-12-12T02:46:57.895Z,-1.00
2022-12-12T02:49:31.493Z,-1.00
2022-12-12T02:52:02.182Z,-1.00
2022-12-12T02:54:30.733Z,-1.00
2022-12-12T02:57:00.935Z,-1.00
2022-12-12T02:59:32.175Z,-1.00
2022-12-12T03:02:42.478Z,-0.90
2022-12-12T03:05:48.311Z,-0.90
2022-12-12T03:08:29.156Z,-0.90
2022-12-12T03:10:59.508Z,-0.90
2022-12-12T03:13:44.061Z,-0.90
2022-12-12T03:16:24.287Z,-0.90
2022-12-12T03:19:00.828Z,-0.80
2022-12-12T03:21:38.819Z,-0.80
2022-12-12T03:24:11.199Z,-0.80
2022-12-12T03:26:46.056Z,-0.80
2022-12-12T03:29:18.727Z,-0.80
2022-12-12T03:31:48.525Z,-0.80
2022-12-12T03:34:21.788Z,-0.70
2022-12-12T03:36:53.241Z,-0.70
2022-12-12T03:39:26.835Z,-0.70
2022-12-12T03:42:00.852Z,-0.70
2022-12-12T03:44:38.136Z,-0.70
2022-12-12T03:47:12.945Z,-0.70
2022-12-12T03:49:47.744Z,-0.70
2022-12-12T03:52:21.761Z,-0.70
2022-12-12T03:54:54.783Z,-0.70
2022-12-12T03:57:28.238Z,-0.70
2022-12-12T04:00:00.444Z,-0.70
2022-12-12T04:02:33.877Z,-0.70
2022-12-12T04:05:12.261Z,-0.70
2022-12-12T04:07:45.088Z,-0.70
2022-12-12T04:10:31.093Z,-0.60
2022-12-12T04:13:09.277Z,-0.60
2022-12-12T04:15:52.695Z,-0.60
2022-12-12T04:18:32.057Z,-0.60
2022-12-12T04:21:31.412Z,-0.50
2022-12-12T04:24:10.872Z,-0.50
2022-12-12T04:26:43.093Z,-0.50
2022-12-12T04:29:20.713Z,-0.50
2022-12-12T04:31:54.777Z,-0.40
2022-12-12T04:34:36.607Z,-0.50
2022-12-12T04:37:09.083Z,-0.50
2022-12-12T04:39:40.784Z,-0.50
2022-12-12T04:42:12.976Z,-0.50
2022-12-12T04:44:43.516Z,-0.50
2022-12-12T04:47:14.108Z,-0.50
2022-12-12T04:49:44.669Z,-0.50
2022-12-12T04:52:16.885Z,-0.50
2022-12-12T04:54:50.601Z,-0.40
2022-12-12T04:57:25.596Z,-0.40
2022-12-12T04:59:53.787Z,-0.40
2022-12-12T05:02:30.157Z,-0.40
2022-12-12T05:05:03.192Z,-0.40
2022-12-12T05:07:40.072Z,-0.40
2022-12-12T05:10:14.398Z,-0.40
2022-12-12T05:12:44.404Z,-0.30
2022-12-12T05:15:12.763Z,-0.30
2022-12-12T05:17:45.692Z,-0.20
2022-12-12T05:20:13.622Z,-0.30
2022-12-12T05:22:43.277Z,-0.20
2022-12-12T05:25:13.405Z,-0.20
2022-12-12T05:27:41.788Z,-0.20
2022-12-12T05:30:11.552Z,-0.30
2022-12-12T05:32:39.616Z,-0.20
2022-12-12T05:35:09.562Z,-0.20
2022-12-12T05:37:37.783Z,-0.20
2022-12-12T05:40:09.581Z,-0.20
2022-12-12T05:42:37.604Z,-0.20
2022-12-12T05:45:06.630Z,-0.20
2022-12-12T05:47:36.964Z,-0.30
2022-12-12T05:50:06.149Z,-0.20
2022-12-12T05:52:34.815Z,-0.20
2022-12-12T05:55:03.068Z,-0.20
2022-12-12T05:57:32.585Z,-0.20
2022-12-12T06:00:00.672Z,-0.20
2022-12-12T06:02:28.789Z,-0.20
2022-12-12T06:04:56.900Z,-0.20
2022-12-12T06:07:25.482Z,-0.20
2022-12-12T06:09:55.699Z,-0.20
2022-12-12T06:12:24.184Z,-0.20
2022-12-12T06:14:53.641Z,-0.20
2022-12-12T06:17:21.836Z,-0.20
2022-12-12T06:19:50.038Z,-0.20
2022-12-12T06:22:18.124Z,-0.20
2022-12-12T06:24:46.181Z,-0.20
2022-12-12T06:27:14.307Z,-0.20
2022-12-12T06:29:42.490Z,-0.20
2022-12-12T06:32:12.310Z,-0.20
2022-12-12T06:34:40.617Z,-0.20
2022-12-12T06:37:14.106Z,-0.20
2022-12-12T06:39:45.244Z,-0.20
2022-12-12T06:42:15.637Z,-0.20
2022-12-12T06:44:43.808Z,-0.20
2022-12-12T06:47:13.302Z,-0.20
2022-12-12T06:49:41.396Z,-0.20
2022-12-12T06:52:09.517Z,-0.20
2022-12-12T06:54:37.659Z,-0.20
2022-12-12T06:57:05.870Z,-0.20
2022-12-12T06:59:36.473Z,-0.20
2022-12-12T07:02:05.707Z,-0.20
2022-12-12T07:04:35.207Z,-0.20
2022-12-12T07:07:03.528Z,-0.20
2022-12-12T07:09:31.814Z,-0.30
2022-12-12T07:11:59.902Z,-0.30
2022-12-12T07:14:28.000Z,-0.20
2022-12-12T07:16:56.122Z,-0.20
2022-12-12T07:19:25.354Z,-0.30
2022-12-12T07:21:54.876Z,-0.20
2022-12-12T07:24:23.055Z,-0.20
2022-12-12T07:26:51.243Z,-0.20
2022-12-12T07:29:19.302Z,-0.30
2022-12-12T07:31:47.649Z,-0.30
2022-12-12T07:34:15.762Z,-0.30
2022-12-12T07:36:44.048Z,-0.30
2022-12-12T07:39:20.114Z,-0.30
2022-12-12T07:41:48.873Z,-0.30
2022-12-12T07:44:22.469Z,-0.30
2022-12-12T07:46:50.543Z,-0.30
2022-12-12T07:49:18.916Z,-0.30
2022-12-12T07:51:49.263Z,-0.30
2022-12-12T07:54:19.049Z,-0.20
2022-12-12T07:56:47.127Z,-0.30
2022-12-12T07:59:15.203Z,-0.30
2022-12-12T08:01:43.566Z,-0.30
2022-12-12T08:04:11.744Z,-0.30
2022-12-12T08:06:40.097Z,-0.30
2022-12-12T08:09:08.198Z,-0.30
2022-12-12T08:11:44.622Z,-0.30
2022-12-12T08:14:14.248Z,-0.30
2022-12-12T08:16:42.870Z,-0.30
2022-12-12T08:19:10.998Z,-0.30
2022-12-12T08:21:39.059Z,-0.30
2022-12-12T08:24:07.705Z,-0.30
2022-12-12T08:26:37.212Z,-0.30
2022-12-12T08:29:05.995Z,-0.30
2022-12-12T08:31:35.037Z,-0.30
2022-12-12T08:34:03.695Z,-0.30
2022-12-12T08:36:33.140Z,-0.30
2022-12-12T08:39:07.098Z,-0.30
2022-12-12T08:41:38.295Z,-0.30
2022-12-12T08:44:07.142Z,-0.30
2022-12-12T08:46:35.842Z,-0.40
2022-12-12T08:49:04.006Z,-0.40
2022-12-12T08:51:32.108Z,-0.30
2022-12-12T08:54:00.300Z,-0.30
2022-12-12T08:56:28.553Z,-0.30
2022-12-12T08:58:58.811Z,-0.20
2022-12-12T09:01:28.637Z,-0.20
2022-12-12T09:03:58.781Z,-0.20
2022-12-12T09:06:27.629Z,-0.30
2022-12-12T09:08:57.385Z,-0.30
2022-12-12T09:11:27.691Z,-0.30
2022-12-12T09:13:57.399Z,-0.30
2022-12-12T09:16:27.576Z,-0.30
2022-12-12T09:18:55.977Z,-0.30
2022-12-12T09:21:24.511Z,-0.30
2022-12-12T09:23:52.682Z,-0.30
2022-12-12T09:26:20.798Z,-0.30
2022-12-12T09:28:50.033Z,-0.30
2022-12-12T09:31:21.003Z,-0.30
2022-12-12T09:33:50.470Z,-0.30
2022-12-12T09:36:18.965Z,-0.30
2022-12-12T09:38:50.186Z,-0.30
2022-12-12T09:41:20.629Z,-0.30
2022-12-12T09:43:58.744Z,-0.30
2022-12-12T09:46:35.915Z,-0.30
2022-12-12T09:49:13.187Z,-0.30
2022-12-12T09:51:43.385Z,-0.30
2022-12-12T09:54:18.503Z,-0.40
2022-12-12T09:57:08.604Z,-0.50
2022-12-12T09:59:45.177Z,-0.40
2022-12-12T10:02:41.566Z,-0.40
2022-12-12T10:05:22.989Z,-0.40
2022-12-12T10:08:00.480Z,-0.50
2022-12-12T10:10:34.032Z,-0.50
2022-12-12T10:13:07.651Z,-0.40
2022-12-12T10:15:38.313Z,-0.40
2022-12-12T10:18:13.780Z,-0.40
2022-12-12T10:20:48.391Z,-0.50
2022-12-12T10:23:22.596Z,-0.50
2022-12-12T10:25:53.932Z,-0.30
2022-12-12T10:28:25.181Z,-0.30
2022-12-12T10:31:06.194Z,-0.40
2022-12-12T10:33:54.088Z,-0.40
2022-12-12T10:36:35.586Z,-0.40
2022-12-12T10:39:18.622Z,-0.40
2022-12-12T10:41:51.692Z,-0.40
2022-12-12T10:44:35.759Z,-0.20
2022-12-12T10:47:07.092Z,-0.30
2022-12-12T10:49:40.150Z,-0.40
2022-12-12T10:52:17.479Z,-0.40
2022-12-12T10:54:48.891Z,-0.50
2022-12-12T10:57:23.351Z,-0.50
2022-12-12T10:59:53.452Z,-0.40
2022-12-12T11:02:30.411Z,-0.30
2022-12-12T11:05:09.879Z,-0.30
2022-12-12T11:07:39.896Z,-0.30
2022-12-12T11:10:27.975Z,-0.30
2022-12-12T11:13:02.614Z,-0.20
2022-12-12T11:15:40.702Z,-0.10
2022-12-12T11:18:16.177Z,-0.20
2022-12-12T11:20:52.472Z,-0.20
2022-12-12T11:23:24.794Z,-0.20
2022-12-12T11:25:57.786Z,-0.30
2022-12-12T11:28:28.658Z,-0.10
2022-12-12T11:30:57.711Z,-0.10
2022-12-12T11:33:33.188Z,-0.20
2022-12-12T11:36:06.339Z,-0.20
2022-12-12T11:38:40.394Z,0.00
2022-12-12T11:41:10.560Z,-0.10
2022-12-12T11:43:53.740Z,-0.30
2022-12-12T11:46:25.562Z,-0.20
2022-12-12T11:49:00.351Z,-0.10
2022-12-12T11:51:35.819Z,0.00
2022-12-12T11:54:06.354Z,0.10
2022-12-12T11:56:45.507Z,0.00
2022-12-12T11:59:37.048Z,-0.10
2022-12-12T12:02:34.439Z,-0.20
2022-12-12T12:05:17.899Z,-0.20
2022-12-12T12:08:01.900Z,-0.30
2022-12-12T12:10:44.259Z,-0.50
2022-12-12T12:13:30.374Z,-0.50
2022-12-12T12:16:09.128Z,-0.40
2022-12-12T12:18:56.310Z,-0.40
2022-12-12T12:21:30.351Z,-0.40
2022-12-12T12:24:17.263Z,-0.50
2022-12-12T12:26:52.441Z,-0.60
2022-12-12T12:29:43.878Z,-0.50
2022-12-12T12:32:24.935Z,-0.60
2022-12-12T12:35:02.343Z,-0.70
2022-12-12T12:37:40.442Z,-0.70
2022-12-12T12:40:24.142Z,-0.80
2022-12-12T12:43:11.298Z,-0.80
2022-12-12T12:45:46.654Z,-0.80
2022-12-12T12:48:21.267Z,-0.90
2022-12-12T12:50:54.042Z,-0.80
2022-12-12T12:53:32.666Z,-0.80
2022-12-12T12:56:09.693Z,-0.70
2022-12-12T12:58:46.121Z,-0.70
2022-12-12T13:01:20.322Z,-0.80
2022-12-12T13:03:56.485Z,-0.90
2022-12-12T13:06:39.939Z,-0.90
2022-12-12T13:09:23.707Z,-0.90
2022-12-12T13:11:58.641Z,-0.90
2022-12-12T13:14:39.153Z,-0.90
2022-12-12T13:17:13.131Z,-0.90
2022-12-12T13:19:44.192Z,-0.80
2022-12-12T13:22:16.532Z,-0.80
2022-12-12T13:24:56.336Z,-0.70
2022-12-12T13:27:34.103Z,-0.70
2022-12-12T13:30:06.101Z,-0.70
2022-12-12T13:33:05.517Z,-0.70
2022-12-12T13:35:36.783Z,-0.80
2022-12-12T13:38:05.391Z,-0.80
2022-12-12T13:40:39.340Z,-0.90
2022-12-12T13:43:26.873Z,-0.90
2022-12-12T13:45:55.095Z,-0.80
2022-12-12T13:48:46.902Z,-0.80
2022-12-12T13:51:38.089Z,-0.80
2022-12-12T13:54:44.982Z,-0.70
2022-12-12T13:57:31.834Z,-0.70
2022-12-12T14:00:21.141Z,-0.70
2022-12-12T14:03:06.240Z,-0.80
2022-12-12T14:05:36.644Z,-0.80
2022-12-12T14:08:21.558Z,-0.70
2022-12-12T14:10:59.236Z,-0.80
2022-12-12T14:13:33.365Z,-0.80
2022-12-12T14:16:08.878Z,-0.80
2022-12-12T14:18:41.151Z,-1.00
2022-12-12T14:21:13.164Z,-0.90
2022-12-12T14:23:43.162Z,-1.00
2022-12-12T14:26:48.187Z,-1.10
2022-12-12T14:29:28.330Z,-0.90
2022-12-12T14:32:14.710Z,-0.90
2022-12-12T14:34:50.954Z,-1.00
2022-12-12T14:37:48.325Z,-1.00
2022-12-12T14:40:22.649Z,-1.00
2022-12-12T14:43:20.264Z,-1.00
2022-12-12T14:45:55.004Z,-1.10
2022-12-12T14:48:29.043Z,-1.10
2022-12-12T14:51:10.186Z,-1.00
2022-12-12T14:53:47.967Z,-1.10
2022-12-12T14:56:18.669Z,-1.10
2022-12-12T14:58:50.599Z,-1.20
2022-12-12T15:01:32.195Z,-1.10
2022-12-12T15:04:05.025Z,-1.10
2022-12-12T15:06:36.332Z,-1.10
2022-12-12T15:09:25.781Z,-1.10
2022-12-12T15:11:57.844Z,-1.10
2022-12-12T15:14:28.650Z,-1.10
2022-12-12T15:17:04.038Z,-1.20
2022-12-12T15:19:38.427Z,-1.30
2022-12-12T15:22:12.574Z,-1.30
2022-12-12T15:24:41.393Z,-1.20
2022-12-12T15:27:16.866Z,-1.20
2022-12-12T15:29:46.588Z,-1.10
2022-12-12T15:32:19.495Z,-1.20
2022-12-12T15:35:00.183Z,-1.20
2022-12-12T15:37:30.208Z,-1.20
2022-12-12T15:40:17.462Z,-1.10
2022-12-12T15:42:48.601Z,-1.20
2022-12-12T15:45:22.875Z,-1.20
2022-12-12T15:47:53.500Z,-1.20
2022-12-12T15:50:26.630Z,-1.20
2022-12-12T15:53:05.495Z,-1.20
2022-12-12T15:55:34.738Z,-1.30
2022-12-12T15:58:03.595Z,-1.30
2022-12-12T16:00:36.436Z,-1.30
2022-12-12T16:03:19.836Z,-1.30
2022-12-12T16:06:03.015Z,-1.40
2022-12-12T16:08:47.162Z,-1.40
2022-12-12T16:11:39.833Z,-1.40
2022-12-12T16:14:26.137Z,-1.50
2022-12-12T16:16:58.800Z,-1.50
2022-12-12T16:19:35.999Z,-1.50
2022-12-12T16:22:07.944Z,-1.50
2022-12-12T16:24:47.380Z,-1.50
2022-12-12T16:27:15.659Z,-1.50
2022-12-12T16:29:44.279Z,-1.40
2022-12-12T16:32:17.226Z,-1.30
2022-12-12T16:34:46.788Z,-1.40
2022-12-12T16:37:18.239Z,-1.40
2022-12-12T16:39:46.705Z,-1.40
2022-12-12T16:42:15.741Z,-1.40
2022-12-12T16:44:43.986Z,-1.30
2022-12-12T16:47:16.486Z,-1.30
2022-12-12T16:49:44.722Z,-1.40
2022-12-12T16:52:14.087Z,-1.40
2022-12-12T16:54:49.611Z,-1.30
2022-12-12T16:57:21.375Z,-1.30
2022-12-12T16:59:49.602Z,-1.30
2022-12-12T17:02:20.650Z,-1.30
2022-12-12T17:04:49.304Z,-1.30
2022-12-12T17:07:17.714Z,-1.30
2022-12-12T17:09:47.202Z,-1.30
2022-12-12T17:12:15.618Z,-1.30
2022-12-12T17:14:43.914Z,-1.40
2022-12-12T17:17:12.088Z,-1.30
2022-12-12T17:19:40.258Z,-1.30
2022-12-12T17:22:08.516Z,-1.30
2022-12-12T17:24:39.011Z,-1.30
2022-12-12T17:27:08.420Z,-1.30
2022-12-12T17:29:36.554Z,-1.30
2022-12-12T17:32:06.999Z,-1.20
2022-12-12T17:34:35.469Z,-1.20
2022-12-12T17:37:03.674Z,-1.10
2022-12-12T17:39:31.821Z,-1.20
2022-12-12T17:42:00.065Z,-1.20
2022-12-12T17:44:29.729Z,-1.20
2022-12-12T17:46:57.874Z,-1.20
2022-12-12T17:49:25.988Z,-1.20
2022-12-12T17:51:54.290Z,-1.20
2022-12-12T17:54:22.535Z,-1.20
2022-12-12T17:56:50.750Z,-1.20
2022-12-12T17:59:18.993Z,-1.20
2022-12-12T18:01:56.618Z,-1.20
2022-12-12T18:04:28.243Z,-1.30
2022-12-12T18:07:00.031Z,-1.20
2022-12-12T18:09:30.848Z,-1.20
2022-12-12T18:12:05.275Z,-1.20
2022-12-12T18:14:33.559Z,-1.20
2022-12-12T18:17:05.637Z,-1.20
2022-12-12T18:19:33.830Z,-1.20
2022-12-12T18:22:02.453Z,-1.20
2022-12-12T18:24:32.444Z,-1.20
2022-12-12T18:27:03.286Z,-1.30
2022-12-12T18:29:32.207Z,-1.20
2022-12-12T18:32:01.311Z,-1.30
2022-12-12T18:34:30.866Z,-1.30
2022-12-12T18:36:59.216Z,-1.40
2022-12-12T18:39:27.499Z,-1.40
2022-12-12T18:41:55.812Z,-1.50
2022-12-12T18:44:24.417Z,-1.50
2022-12-12T18:46:52.695Z,-1.50
2022-12-12T18:49:21.044Z,-1.60
2022-12-12T18:51:50.511Z,-1.60
2022-12-12T18:54:18.690Z,-1.60
2022-12-12T18:56:47.699Z,-1.60
2022-12-12T18:59:16.642Z,-1.60
2022-12-12T19:01:45.456Z,-1.70
2022-12-12T19:04:22.768Z,-1.60
2022-12-12T19:06:56.154Z,-1.70
2022-12-12T19:09:24.438Z,-1.70
2022-12-12T19:12:00.143Z,-1.80
2022-12-12T19:15:15.260Z,-1.80
2022-12-12T19:17:25.324Z,-1.70
2022-12-12T19:19:54.890Z,-1.80
2022-12-12T19:22:44.515Z,-1.80
2022-12-12T19:25:14.159Z,-1.80
2022-12-12T19:27:42.468Z,-1.80
2022-12-12T19:30:12.668Z,-1.90
2022-12-12T19:32:41.126Z,-1.90
2022-12-12T19:35:10.025Z,-2.00
2022-12-12T19:37:39.619Z,-2.10
2022-12-12T19:40:09.933Z,-2.10
2022-12-12T19:42:39.428Z,-2.10
2022-12-12T19:45:09.808Z,-2.20
2022-12-12T19:47:38.052Z,-2.20
2022-12-12T19:50:07.201Z,-2.20
2022-12-12T19:52:35.705Z,-2.20
2022-12-12T19:55:05.874Z,-2.20
2022-12-12T19:57:33.981Z,-2.10
2022-12-12T20:00:02.194Z,-2.10
2022-12-12T20:02:37.818Z,-2.10
2022-12-12T20:05:06.585Z,-2.10
2022-12-12T20:07:35.388Z,-2.10
2022-12-12T20:10:05.194Z,-2.00
2022-12-12T20:12:33.418Z,-1.90
2022-12-12T20:15:01.709Z,-1.80
2022-12-12T20:17:29.906Z,-1.70
2022-12-12T20:19:58.096Z,-1.70
2022-12-12T20:22:26.432Z,-1.60
2022-12-12T20:24:54.741Z,-1.60
2022-12-12T20:27:24.652Z,-1.50
2022-12-12T20:29:53.029Z,-1.50
2022-12-12T20:32:21.411Z,-1.40
2022-12-12T20:34:49.825Z,-1.40
2022-12-12T20:37:20.240Z,-1.40
2022-12-12T20:39:48.679Z,-1.40
2022-12-12T20:42:16.779Z,-1.30
2022-12-12T20:44:46.388Z,-1.30
2022-12-12T20:47:17.134Z,-1.30
2022-12-12T20:49:45.509Z,-1.30
2022-12-12T20:52:13.736Z,-1.20
2022-12-12T20:54:41.856Z,-1.20
2022-12-12T20:57:11.945Z,-1.20
2022-12-12T20:59:40.305Z,-1.10
2022-12-12T21:02:15.481Z,-1.00
2022-12-12T21:04:43.718Z,-1.10
2022-12-12T21:07:14.732Z,-1.00
2022-12-12T21:09:42.946Z,-1.00
2022-12-12T21:12:11.205Z,-1.00
2022-12-12T21:14:39.464Z,-1.00
2022-12-12T21:17:07.820Z,-1.00
2022-12-12T21:19:37.662Z,-1.00
2022-12-12T21:22:08.466Z,-0.90
2022-12-12T21:24:36.882Z,-1.00
2022-12-12T21:27:05.133Z,-1.00
2022-12-12T21:29:33.833Z,-1.00
2022-12-12T21:32:02.425Z,-1.00
2022-12-12T21:34:30.893Z,-1.10
2022-12-12T21:37:00.875Z,-1.10
2022-12-12T21:39:30.632Z,-1.10
2022-12-12T21:41:58.900Z,-1.10
2022-12-12T21:44:27.445Z,-1.10
2022-12-12T21:46:58.220Z,-1.00
2022-12-12T21:49:30.947Z,-1.10
2022-12-12T21:52:03.116Z,-1.20
2022-12-12T21:54:32.127Z,-1.20
2022-12-12T21:57:01.865Z,-1.20
2022-12-12T21:59:30.860Z,-1.10
2022-12-12T22:02:01.321Z,-1.10
2022-12-12T22:04:29.941Z,-1.10
2022-12-12T22:06:58.774Z,-1.00
2022-12-12T22:09:30.669Z,-1.00
2022-12-12T22:12:03.505Z,-1.10
2022-12-12T22:14:33.676Z,-1.00
2022-12-12T22:17:02.233Z,-1.00
2022-12-12T22:19:33.092Z,-1.00
2022-12-12T22:22:01.346Z,-1.10
2022-12-12T22:24:31.051Z,-1.10
2022-12-12T22:26:59.205Z,-1.10
2022-12-12T22:29:27.354Z,-1.10
2022-12-12T22:31:55.835Z,-1.10
2022-12-12T22:34:25.383Z,-1.10
2022-12-12T22:36:54.315Z,-1.10
2022-12-12T22:39:24.488Z,-1.00
2022-12-12T22:41:57.872Z,-1.00
2022-12-12T22:44:27.379Z,-1.10
2022-12-12T22:46:57.178Z,-1.10
2022-12-12T22:49:28.464Z,-1.00
2022-12-12T22:51:57.979Z,-1.10
2022-12-12T22:54:26.611Z,-1.10
2022-12-12T22:56:56.318Z,-1.10
2022-12-12T22:59:25.302Z,-1.10
2022-12-12T23:01:53.782Z,-1.00
2022-12-12T23:04:22.511Z,-1.00
2022-12-12T23:06:50.645Z,-1.00
2022-12-12T23:09:21.483Z,-1.00
2022-12-12T23:11:50.399Z,-1.00
2022-12-12T23:14:22.697Z,-0.90
2022-12-12T23:16:51.789Z,-1.10
2022-12-12T23:19:21.833Z,-1.10
2022-12-12T23:21:50.222Z,-1.00
2022-12-12T23:24:18.403Z,-1.00
2022-12-12T23:26:46.948Z,-1.00
2022-12-12T23:29:16.894Z,-1.00
2022-12-12T23:31:48.941Z,-1.00
2022-12-12T23:34:20.746Z,-1.00
2022-12-12T23:36:49.230Z,-1.10
2022-12-12T23:39:17.609Z,-1.20
2022-12-12T23:41:45.791Z,-1.10
2022-12-12T23:44:16.089Z,-1.10
2022-12-12T23:46:47.993Z,-1.00
2022-12-12T23:49:19.534Z,-0.90
2022-12-12T23:51:50.909Z,-0.90
2022-12-12T23:54:20.727Z,-1.00
2022-12-12T23:56:51.664Z,-1.00
2022-12-12T23:59:21.008Z,-0.90
